Time;durP1;ratioP1;P1;durP2;ratioP2;P2;SDS_P1;SDS_P2;PMS_P1;PMS_P2;Temp;Humidity;BMP_temperature;BMP_pressure;BME280_temperature;BME280_humidity;BME280_pressure;Samples;Min_cycle;Max_cycle;Signal;HPM_P1;HPM_P2
2023/09/28 00:01:57;;;;;;;7.90;7.00;;;;;13.50;97359.00;;;;5046921;28;20250;-70
2023/09/28 00:04:45;;;;;;;13.43;8.17;;;;;13.80;97363.00;;;;5044389;28;20201;-69
2023/09/28 00:07:35;;;;;;;10.57;7.47;;;;;13.80;97359.00;;;;5041381;28;20219;-69
2023/09/28 00:10:25;;;;;;;9.17;7.70;;;;;14.00;97357.00;;;;5042069;28;20216;-69
2023/09/28 00:13:14;;;;;;;15.87;9.70;;;;;13.90;97358.00;;;;5035288;28;20215;-69
2023/09/28 00:16:02;;;;;;;11.40;7.40;;;;;13.60;97360.00;;;;5048297;28;20689;-68
2023/09/28 00:18:51;;;;;;;9.07;7.33;;;;;13.20;97354.00;;;;5044390;28;20609;-69
2023/09/28 00:21:40;;;;;;;9.57;6.90;;;;;13.40;97349.00;;;;5043533;28;20197;-69
2023/09/28 00:24:30;;;;;;;9.43;7.30;;;;;13.70;97354.00;;;;5047262;28;20232;-69
2023/09/28 00:27:19;;;;;;;9.50;7.73;;;;;13.70;97346.00;;;;5040164;28;20200;-69
2023/09/28 00:30:10;;;;;;;17.60;7.20;;;;;13.40;97354.00;;;;5042425;28;20709;-68
2023/09/28 00:32:59;;;;;;;11.30;8.07;;;;;13.20;97341.00;;;;5045160;28;20229;-69
2023/09/28 00:35:47;;;;;;;9.53;7.70;;;;;13.50;97352.00;;;;5043669;28;20875;-69
2023/09/28 00:38:36;;;;;;;13.17;7.60;;;;;13.50;97349.00;;;;5040768;28;20221;-69
2023/09/28 00:41:26;;;;;;;13.30;8.30;;;;;13.60;97353.00;;;;5046260;28;20211;-69
2023/09/28 00:44:15;;;;;;;11.07;8.63;;;;;13.50;97349.00;;;;5036085;28;20197;-70
2023/09/28 00:47:05;;;;;;;14.83;7.97;;;;;13.50;97349.00;;;;5042359;28;20209;-68
2023/09/28 00:49:54;;;;;;;11.80;8.67;;;;;13.40;97348.00;;;;5041308;28;20769;-68
2023/09/28 00:52:46;;;;;;;9.13;7.73;;;;;13.20;97342.00;;;;5045016;28;20208;-69
2023/09/28 00:55:36;;;;;;;13.80;7.70;;;;;13.30;97348.00;;;;5034311;28;20224;-69
2023/09/28 00:58:27;;;;;;;11.60;7.93;;;;;13.40;97343.00;;;;5040277;28;20254;-68
2023/09/28 01:01:15;;;;;;;13.20;8.03;;;;;13.30;97345.00;;;;5044507;28;20210;-69
2023/09/28 01:04:06;;;;;;;9.97;8.20;;;;;13.50;97339.00;;;;5043237;28;20205;-69
2023/09/28 01:06:54;;;;;;;10.73;7.73;;;;;13.50;97338.00;;;;5044092;28;20200;-69
2023/09/28 01:09:43;;;;;;;14.37;8.10;;;;;13.60;97336.00;;;;5042045;28;20221;-69
2023/09/28 01:12:31;;;;;;;12.20;7.40;;;;;13.50;97341.00;;;;5045453;28;20200;-68
2023/09/28 01:15:22;;;;;;;8.13;7.33;;;;;13.50;97342.00;;;;5042957;28;20693;-68
2023/09/28 01:18:10;;;;;;;11.50;6.87;;;;;13.60;97334.00;;;;5043195;28;20910;-68
2023/09/28 01:21:00;;;;;;;10.33;6.43;;;;;13.50;97336.00;;;;5045278;28;20610;-69
2023/09/28 01:23:49;;;;;;;11.23;7.60;;;;;13.30;97337.00;;;;5043669;28;20201;-69
2023/09/28 01:26:39;;;;;;;9.47;6.80;;;;;13.20;97340.00;;;;5043196;28;20200;-68
2023/09/28 01:29:27;;;;;;;11.83;7.83;;;;;13.20;97331.00;;;;5040830;28;20224;-68
2023/09/28 01:32:16;;;;;;;8.63;6.40;;;;;13.40;97335.00;;;;5037441;28;20732;-69
2023/09/28 01:35:06;;;;;;;9.77;7.80;;;;;13.20;97328.00;;;;5046104;28;20681;-69
2023/09/28 01:38:00;;;;;;;12.07;8.60;;;;;13.00;97327.00;;;;5040960;28;20248;-68
2023/09/28 01:40:51;;;;;;;8.93;7.47;;;;;12.70;97331.00;;;;5042775;28;20201;-69
2023/09/28 01:43:40;;;;;;;8.87;7.53;;;;;12.60;97325.00;;;;5042598;28;20212;-69
2023/09/28 01:46:29;;;;;;;13.10;9.00;;;;;12.40;97328.00;;;;5040179;28;20223;-69
2023/09/28 01:49:17;;;;;;;14.50;7.23;;;;;12.70;97324.00;;;;5039147;28;20229;-69
2023/09/28 01:52:06;;;;;;;11.33;8.70;;;;;13.00;97329.00;;;;5046858;28;20588;-68
2023/09/28 01:54:54;;;;;;;10.30;8.13;;;;;13.00;97324.00;;;;5047062;28;20208;-69
2023/09/28 01:57:45;;;;;;;11.63;9.07;;;;;13.30;97327.00;;;;5034951;28;20201;-68
2023/09/28 02:00:34;;;;;;;14.37;8.03;;;;;13.40;97333.00;;;;5041154;28;20215;-69
2023/09/28 02:03:22;;;;;;;10.03;7.67;;;;;13.30;97322.00;;;;5040167;28;20205;-69
2023/09/28 02:06:11;;;;;;;14.93;7.80;;;;;13.40;97319.00;;;;5041374;28;20200;-69
2023/09/28 02:08:59;;;;;;;12.13;7.73;;;;;13.20;97319.00;;;;5045389;28;20622;-70
2023/09/28 02:11:48;;;;;;;11.17;7.47;;;;;12.90;97317.00;;;;5050330;28;20567;-69
2023/09/28 02:14:38;;;;;;;11.37;7.23;;;;;12.60;97324.00;;;;5043486;28;20193;-69
2023/09/28 02:17:29;;;;;;;8.87;7.23;;;;;12.40;97321.00;;;;5041763;28;20232;-69
2023/09/28 02:20:22;;;;;;;14.33;7.33;;;;;12.40;97318.00;;;;5047352;28;20201;-69
2023/09/28 02:23:10;;;;;;;10.23;6.77;;;;;12.50;97324.00;;;;5049358;28;20205;-68
2023/09/28 02:26:06;;;;;;;9.57;7.63;;;;;12.70;97322.00;;;;5043583;28;20194;-69
2023/09/28 02:28:55;;;;;;;13.27;8.27;;;;;12.80;97324.00;;;;5042722;28;20236;-71
2023/09/28 02:31:46;;;;;;;13.00;8.07;;;;;12.60;97327.00;;;;5045997;28;20201;-70
2023/09/28 02:34:35;;;;;;;9.10;8.20;;;;;12.70;97327.00;;;;5045823;28;20703;-69
2023/09/28 02:37:23;;;;;;;9.80;8.17;;;;;12.90;97325.00;;;;5042408;28;20224;-69
2023/09/28 02:40:14;;;;;;;10.37;7.97;;;;;12.80;97326.00;;;;5045728;28;20205;-68
2023/09/28 02:43:02;;;;;;;10.67;8.07;;;;;12.80;97330.00;;;;5039005;28;20212;-69
2023/09/28 02:45:51;;;;;;;10.70;7.83;;;;;12.70;97325.00;;;;5045426;28;20205;-69
2023/09/28 02:48:41;;;;;;;9.10;8.03;;;;;12.60;97317.00;;;;5036764;28;20227;-69
2023/09/28 02:51:30;;;;;;;9.40;7.93;;;;;12.70;97330.00;;;;5046342;28;20212;-69
2023/09/28 02:54:19;;;;;;;10.53;8.07;;;;;12.60;97325.00;;;;5046016;28;20630;-69
2023/09/28 02:57:08;;;;;;;10.57;6.77;;;;;12.50;97319.00;;;;5044677;28;20237;-69
2023/09/28 02:59:57;;;;;;;9.90;8.00;;;;;12.40;97315.00;;;;5049712;28;20231;-69
2023/09/28 03:02:45;;;;;;;10.63;7.70;;;;;12.10;97319.00;;;;5045555;28;20589;-69
2023/09/28 03:05:37;;;;;;;8.63;7.17;;;;;12.20;97319.00;;;;5043163;28;20211;-69
2023/09/28 03:08:25;;;;;;;10.47;7.27;;;;;12.60;97319.00;;;;5047546;28;20235;-69
2023/09/28 03:11:14;;;;;;;20.83;8.87;;;;;12.60;97320.00;;;;5044814;28;20247;-68
2023/09/28 03:14:03;;;;;;;10.90;8.17;;;;;12.40;97317.00;;;;5048026;28;20601;-70
2023/09/28 03:16:53;;;;;;;16.03;8.33;;;;;12.30;97313.00;;;;5037497;28;20227;-70
2023/09/28 03:19:41;;;;;;;8.83;6.70;;;;;12.10;97330.00;;;;5046687;28;20696;-69
2023/09/28 03:22:32;;;;;;;11.37;8.23;;;;;12.40;97321.00;;;;5041026;28;20209;-69
2023/09/28 03:25:22;;;;;;;10.37;8.03;;;;;12.60;97326.00;;;;5040575;28;20214;-69
2023/09/28 03:28:11;;;;;;;9.17;8.03;;;;;12.50;97319.00;;;;5046347;28;20301;-69
2023/09/28 03:31:00;;;;;;;11.70;7.67;;;;;12.50;97323.00;;;;5046656;28;20212;-68
2023/09/28 03:33:49;;;;;;;14.93;9.07;;;;;12.30;97311.00;;;;5043593;28;20720;-70
2023/09/28 03:36:38;;;;;;;15.37;8.40;;;;;12.20;97313.00;;;;5042947;28;20212;-69
2023/09/28 03:39:29;;;;;;;10.80;7.70;;;;;12.20;97322.00;;;;5040982;28;20598;-69
2023/09/28 03:42:18;;;;;;;9.40;7.67;;;;;12.30;97322.00;;;;5045416;28;20227;-70
2023/09/28 03:45:09;;;;;;;9.80;7.97;;;;;12.70;97318.00;;;;5045769;28;20201;-69
2023/09/28 03:47:58;;;;;;;12.07;8.47;;;;;12.80;97319.00;;;;5046354;28;20222;-69
2023/09/28 03:50:47;;;;;;;11.40;8.10;;;;;12.60;97315.00;;;;5037525;28;20201;-69
2023/09/28 03:53:40;;;;;;;11.30;8.00;;;;;12.50;97317.00;;;;5038827;28;20315;-69
2023/09/28 03:56:31;;;;;;;13.00;7.00;;;;;12.20;97317.00;;;;5046556;28;20243;-70
2023/09/28 03:59:20;;;;;;;8.97;7.10;;;;;12.00;97316.00;;;;5041628;28;20236;-70
2023/09/28 04:02:09;;;;;;;15.60;8.43;;;;;11.50;97312.00;;;;5043012;28;20219;-69
2023/09/28 04:04:58;;;;;;;8.23;7.20;;;;;11.50;97311.00;;;;5044089;28;20208;-70
2023/09/28 04:07:47;;;;;;;10.47;7.63;;;;;11.50;97311.00;;;;5035987;28;20204;-70
2023/09/28 04:10:36;;;;;;;13.53;8.90;;;;;11.80;97311.00;;;;5038715;28;20216;-69
2023/09/28 04:13:26;;;;;;;9.40;8.10;;;;;12.00;97311.00;;;;5037895;28;20215;-69
2023/09/28 04:16:15;;;;;;;15.57;8.53;;;;;12.00;97311.00;;;;5040193;28;20200;-68
2023/09/28 04:19:05;;;;;;;13.70;9.23;;;;;12.20;97309.00;;;;5057297;22;20231;-87
2023/09/28 04:21:54;;;;;;;11.17;8.90;;;;;12.20;97311.00;;;;5049536;28;20221;-87
2023/09/28 04:24:44;;;;;;;13.70;9.17;;;;;12.60;97307.00;;;;5050422;28;20211;-87
2023/09/28 04:27:33;;;;;;;14.97;9.73;;;;;12.20;97308.00;;;;5041164;28;20600;-87
2023/09/28 04:30:24;;;;;;;10.30;7.83;;;;;12.20;97314.00;;;;5043506;28;20205;-88
2023/09/28 04:33:13;;;;;;;18.27;8.43;;;;;12.00;97309.00;;;;5052050;28;20215;-86
2023/09/28 04:36:02;;;;;;;11.67;8.70;;;;;11.60;97313.00;;;;5043213;28;20585;-85
2023/09/28 04:38:51;;;;;;;11.77;7.67;;;;;11.80;97310.00;;;;5041744;28;20212;-85
2023/09/28 04:41:41;;;;;;;12.67;8.07;;;;;12.10;97317.00;;;;5048034;28;20442;-86
2023/09/28 04:44:30;;;;;;;11.13;9.00;;;;;12.10;97327.00;;;;5048643;28;20208;-85
2023/09/28 04:47:20;;;;;;;12.07;9.47;;;;;12.40;97316.00;;;;5044903;28;20661;-86
2023/09/28 04:50:11;;;;;;;9.30;8.10;;;;;12.50;97322.00;;;;5044566;28;20208;-86
2023/09/28 04:53:00;;;;;;;9.70;8.67;;;;;12.70;97319.00;;;;5053116;28;20212;-86
2023/09/28 04:55:49;;;;;;;11.40;7.57;;;;;12.50;97323.00;;;;5049086;28;20676;-85
2023/09/28 04:58:38;;;;;;;9.23;8.17;;;;;12.40;97325.00;;;;5041868;28;20471;-85
2023/09/28 05:01:27;;;;;;;12.87;8.57;;;;;12.20;97322.00;;;;5046506;28;20235;-85
2023/09/28 05:04:18;;;;;;;13.17;9.13;;;;;12.00;97321.00;;;;5044321;28;20207;-86
2023/09/28 05:07:07;;;;;;;10.00;7.43;;;;;11.90;97327.00;;;;5047878;28;20215;-85
2023/09/28 05:09:56;;;;;;;14.20;7.93;;;;;11.40;97325.00;;;;5047458;28;20589;-84
2023/09/28 05:12:45;;;;;;;10.60;7.07;;;;;11.70;97329.00;;;;5042150;28;20589;-86
2023/09/28 05:15:34;;;;;;;11.40;8.60;;;;;11.60;97338.00;;;;5044931;28;20580;-86
2023/09/28 05:18:23;;;;;;;10.33;6.77;;;;;11.40;97328.00;;;;5038734;28;20228;-84
2023/09/28 05:21:14;;;;;;;8.03;7.00;;;;;11.20;97338.00;;;;5049895;28;20220;-86
2023/09/28 05:24:03;;;;;;;9.90;7.73;;;;;11.30;97345.00;;;;5047517;28;20585;-86
2023/09/28 05:26:52;;;;;;;11.63;7.70;;;;;11.50;97353.00;;;;5048644;28;20205;-86
2023/09/28 05:29:41;;;;;;;17.67;8.13;;;;;11.50;97349.00;;;;5048628;28;20223;-86
2023/09/28 05:32:30;;;;;;;11.57;8.67;;;;;11.70;97345.00;;;;5049372;28;20722;-86
2023/09/28 05:35:21;;;;;;;14.70;7.80;;;;;11.80;97350.00;;;;5047762;28;20205;-84
2023/09/28 05:38:11;;;;;;;16.23;6.83;;;;;11.30;97350.00;;;;5051465;28;20232;-85
2023/09/28 05:41:01;;;;;;;16.60;8.53;;;;;11.80;97351.00;;;;5045674;28;20742;-87
2023/09/28 05:43:50;;;;;;;17.97;8.90;;;;;11.90;97358.00;;;;5047081;28;20697;-84
2023/09/28 05:46:39;;;;;;;11.13;7.90;;;;;12.00;97358.00;;;;5057192;28;20223;-87
2023/09/28 05:49:29;;;;;;;13.03;9.47;;;;;12.00;97357.00;;;;5048484;28;20193;-85
2023/09/28 05:52:19;;;;;;;13.80;8.97;;;;;12.10;97364.00;;;;5060853;28;20689;-85
2023/09/28 05:55:10;;;;;;;11.27;6.77;;;;;11.70;97359.00;;;;5053610;28;20224;-83
2023/09/28 05:57:59;;;;;;;10.37;8.93;;;;;11.60;97363.00;;;;5046671;28;20221;-85
2023/09/28 06:00:48;;;;;;;16.07;8.93;;;;;12.20;97369.00;;;;5052469;28;20221;-87
2023/09/28 06:03:37;;;;;;;15.67;10.10;;;;;12.50;97365.00;;;;5050516;28;20283;-86
2023/09/28 06:06:27;;;;;;;13.23;9.03;;;;;12.50;97360.00;;;;5042157;28;20590;-86
2023/09/28 06:09:19;;;;;;;14.63;9.83;;;;;12.30;97368.00;;;;5064139;28;20204;-86
2023/09/28 06:12:09;;;;;;;11.00;8.87;;;;;12.30;97356.00;;;;5050461;28;20236;-87
2023/09/28 06:14:58;;;;;;;10.70;8.90;;;;;12.30;97363.00;;;;5050818;28;20577;-86
2023/09/28 06:17:47;;;;;;;11.30;8.70;;;;;12.30;97356.00;;;;5052431;28;20634;-88
2023/09/28 06:20:37;;;;;;;13.07;8.30;;;;;12.30;97359.00;;;;5051601;28;20236;-88
2023/09/28 06:23:27;;;;;;;9.80;8.20;;;;;12.50;97353.00;;;;5050500;28;20221;-87
2023/09/28 06:26:16;;;;;;;14.47;9.50;;;;;12.80;97362.00;;;;5054452;28;20284;-88
2023/09/28 06:29:13;;;;;;;13.43;8.50;;;;;13.30;97361.00;;;;5045589;28;20207;-87
2023/09/28 06:32:04;;;;;;;14.93;9.67;;;;;13.40;97362.00;;;;5034663;28;20228;-88
2023/09/28 06:34:54;;;;;;;14.90;9.00;;;;;13.80;97366.00;;;;5044586;28;20205;-87
2023/09/28 06:37:43;;;;;;;16.50;9.77;;;;;14.00;97380.00;;;;5045505;28;20205;-83
2023/09/28 06:40:32;;;;;;;14.00;9.33;;;;;14.10;97378.00;;;;5047984;28;20229;-86
2023/09/28 06:43:21;;;;;;;20.00;10.30;;;;;14.30;97384.00;;;;5043160;28;20228;-88
2023/09/28 06:46:12;;;;;;;17.03;10.17;;;;;14.30;97385.00;;;;5065441;28;20269;-87
2023/09/28 06:49:01;;;;;;;16.00;9.07;;;;;14.30;97383.00;;;;5068837;28;20201;-87
2023/09/28 06:51:50;;;;;;;17.40;9.97;;;;;14.60;97389.00;;;;5068976;28;20625;-88
2023/09/28 06:54:39;;;;;;;12.17;9.23;;;;;14.60;97387.00;;;;5063998;28;20204;-87
2023/09/28 06:57:28;;;;;;;20.73;11.07;;;;;15.00;97386.00;;;;5066851;28;20201;-87
2023/09/28 07:00:18;;;;;;;17.43;10.13;;;;;14.90;97389.00;;;;5069710;28;20185;-84
2023/09/28 07:03:09;;;;;;;16.20;10.17;;;;;14.70;97378.00;;;;5068600;28;20208;-87
2023/09/28 07:05:58;;;;;;;12.20;8.90;;;;;14.60;97381.00;;;;5050500;28;20234;-87
2023/09/28 07:08:48;;;;;;;13.57;9.63;;;;;15.10;97380.00;;;;5047536;28;20189;-86
2023/09/28 07:11:37;;;;;;;24.70;8.80;;;;;15.40;97378.00;;;;5054042;28;20691;-87
2023/09/28 07:14:26;;;;;;;14.67;8.97;;;;;15.60;97376.00;;;;5044733;28;20203;-87
2023/09/28 07:17:15;;;;;;;13.50;9.87;;;;;15.90;97381.00;;;;5047989;28;20216;-87
2023/09/28 07:20:07;;;;;;;19.63;10.93;;;;;16.30;97386.00;;;;5049403;28;20242;-86
2023/09/28 07:22:57;;;;;;;17.50;10.33;;;;;16.80;97393.00;;;;5047402;28;20654;-86
2023/09/28 07:25:46;;;;;;;19.70;11.67;;;;;17.10;97404.00;;;;5046285;28;20201;-86
2023/09/28 07:28:35;;;;;;;27.87;10.03;;;;;17.40;97393.00;;;;5048264;28;20207;-87
2023/09/28 07:31:24;;;;;;;13.70;10.37;;;;;17.70;97399.00;;;;5044453;28;20232;-86
2023/09/28 07:34:14;;;;;;;17.00;9.93;;;;;18.00;97402.00;;;;5042899;28;20212;-86
2023/09/28 07:37:05;;;;;;;16.97;10.07;;;;;18.30;97396.00;;;;5050728;28;20200;-87
2023/09/28 07:39:54;;;;;;;15.37;9.33;;;;;18.30;97403.00;;;;5048522;28;20220;-87
2023/09/28 07:42:44;;;;;;;16.23;9.70;;;;;18.40;97397.00;;;;5049330;28;20193;-87
2023/09/28 07:45:33;;;;;;;11.77;8.67;;;;;18.70;97403.00;;;;5046480;28;20208;-84
2023/09/28 07:48:22;;;;;;;15.10;10.33;;;;;18.90;97404.00;;;;5048160;28;20238;-85
2023/09/28 07:51:11;;;;;;;17.97;8.90;;;;;19.10;97405.00;;;;5049227;28;20759;-86
2023/09/28 07:54:02;;;;;;;10.90;8.27;;;;;19.20;97401.00;;;;5051338;28;20208;-85
2023/09/28 07:56:51;;;;;;;19.10;10.00;;;;;18.50;97394.00;;;;5043081;28;20241;-85
2023/09/28 07:59:41;;;;;;;19.73;10.33;;;;;18.90;97397.00;;;;5048561;28;20220;-87
2023/09/28 08:02:30;;;;;;;14.57;10.63;;;;;19.30;97397.00;;;;5045619;28;20236;-87
2023/09/28 08:05:21;;;;;;;20.47;10.03;;;;;19.70;97414.00;;;;5050135;28;20200;-87
2023/09/28 08:08:10;;;;;;;18.47;10.90;;;;;20.00;97399.00;;;;5046456;28;20204;-84
2023/09/28 08:11:05;;;;;;;13.27;9.70;;;;;19.90;97400.00;;;;5044295;28;20697;-85
2023/09/28 08:13:55;;;;;;;8.30;7.47;;;;;20.30;97403.00;;;;5044726;28;20292;-87
2023/09/28 08:16:44;;;;;;;15.17;9.90;;;;;20.40;97399.00;;;;5039899;28;20712;-88
2023/09/28 08:19:33;;;;;;;15.57;9.07;;;;;20.70;97399.00;;;;5043260;28;20255;-85
2023/09/28 08:22:22;;;;;;;19.67;10.27;;;;;20.90;97402.00;;;;5045106;28;20247;-88
2023/09/28 08:25:12;;;;;;;14.53;9.20;;;;;21.00;97399.00;;;;5049683;28;20211;-86
2023/09/28 08:28:02;;;;;;;13.60;9.17;;;;;21.30;97402.00;;;;5042219;28;20209;-88
2023/09/28 08:30:53;;;;;;;16.10;8.90;;;;;21.30;97399.00;;;;5039525;28;20221;-84
2023/09/28 08:33:45;;;;;;;15.70;8.60;;;;;21.50;97401.00;;;;5052058;28;20212;-86
2023/09/28 08:36:34;;;;;;;14.50;7.20;;;;;21.60;97397.00;;;;5041543;28;20215;-85
2023/09/28 08:39:23;;;;;;;12.23;9.70;;;;;21.70;97393.00;;;;5045603;28;20221;-86
2023/09/28 08:42:14;;;;;;;15.63;9.53;;;;;21.90;97387.00;;;;5048401;28;20232;-87
2023/09/28 08:45:05;;;;;;;11.97;8.93;;;;;22.10;97387.00;;;;5045835;28;20576;-83
2023/09/28 08:47:56;;;;;;;13.20;8.53;;;;;22.30;97391.00;;;;5046538;28;20196;-85
2023/09/28 08:50:47;;;;;;;14.33;8.57;;;;;22.60;97395.00;;;;5044856;28;20228;-84
2023/09/28 08:53:37;;;;;;;18.03;8.90;;;;;22.70;97394.00;;;;5046819;28;20215;-84
2023/09/28 08:56:27;;;;;;;13.37;8.10;;;;;22.90;97386.00;;;;5043011;28;20197;-85
2023/09/28 08:59:18;;;;;;;10.60;7.63;;;;;23.30;97392.00;;;;5040754;28;20354;-85
2023/09/28 09:02:09;;;;;;;15.20;8.00;;;;;23.40;97386.00;;;;5045807;28;20220;-85
2023/09/28 09:04:58;;;;;;;14.17;7.77;;;;;23.60;97394.00;;;;5047073;28;20747;-85
2023/09/28 09:07:48;;;;;;;12.37;7.80;;;;;23.60;97392.00;;;;5052590;28;20196;-85
2023/09/28 09:10:38;;;;;;;14.20;7.67;;;;;24.00;97387.00;;;;5047592;28;20221;-84
2023/09/28 09:13:29;;;;;;;15.80;9.00;;;;;24.20;97385.00;;;;5052214;28;20204;-85
2023/09/28 09:16:19;;;;;;;11.97;8.27;;;;;24.50;97385.00;;;;5051984;28;20206;-85
2023/09/28 09:19:11;;;;;;;20.40;7.67;;;;;24.70;97382.00;;;;5053612;28;20303;-84
2023/09/28 09:22:00;;;;;;;11.63;7.40;;;;;24.80;97384.00;;;;5054019;28;20235;-83
2023/09/28 09:24:54;;;;;;;15.57;8.33;;;;;24.80;97385.00;;;;5055311;28;20197;-85
2023/09/28 09:27:43;;;;;;;14.20;6.43;;;;;24.90;97378.00;;;;5055534;28;20201;-85
2023/09/28 09:30:36;;;;;;;11.23;6.87;;;;;25.30;97384.00;;;;5054120;28;20209;-84
2023/09/28 09:33:25;;;;;;;12.47;8.17;;;;;25.60;97370.00;;;;5052021;28;20581;-83
2023/09/28 09:36:18;;;;;;;12.87;7.53;;;;;25.80;97377.00;;;;5047176;28;20216;-85
2023/09/28 09:39:08;;;;;;;15.00;6.47;;;;;26.10;97379.00;;;;5053997;28;20204;-84
2023/09/28 09:41:58;;;;;;;7.10;6.20;;;;;26.20;97380.00;;;;5055255;28;20731;-84
2023/09/28 09:44:49;;;;;;;10.47;6.30;;;;;26.40;97375.00;;;;5050187;28;20213;-84
2023/09/28 09:47:42;;;;;;;10.40;5.87;;;;;26.80;97364.00;;;;5052512;28;20204;-84
2023/09/28 09:50:35;;;;;;;12.10;5.90;;;;;27.00;97373.00;;;;5049063;28;20216;-84
2023/09/28 09:53:26;;;;;;;9.37;5.63;;;;;27.20;97373.00;;;;5053759;28;20204;-85
2023/09/28 09:56:16;;;;;;;10.77;6.17;;;;;27.60;97376.00;;;;5051582;28;20205;-84
2023/09/28 09:59:07;;;;;;;8.03;5.83;;;;;27.60;97382.00;;;;5050817;28;20216;-85
2023/09/28 10:01:56;;;;;;;9.90;5.57;;;;;27.70;97382.00;;;;5049890;28;20252;-84
2023/09/28 10:04:45;;;;;;;11.50;4.97;;;;;27.90;97370.00;;;;5052728;28;20205;-82
2023/09/28 10:07:37;;;;;;;13.63;5.77;;;;;27.70;97364.00;;;;5048915;28;20267;-83
2023/09/28 10:10:32;;;;;;;9.33;5.97;;;;;28.40;97372.00;;;;5048566;28;20200;-83
2023/09/28 10:13:21;;;;;;;9.07;6.23;;;;;28.80;97368.00;;;;5047381;28;20227;-85
2023/09/28 10:16:12;;;;;;;13.43;5.13;;;;;29.20;97365.00;;;;5051599;28;20206;-83
2023/09/28 10:19:04;;;;;;;6.07;5.40;;;;;29.50;97365.00;;;;5049303;28;20242;-85
2023/09/28 10:21:55;;;;;;;8.53;4.80;;;;;29.50;97364.00;;;;5055830;28;20231;-84
2023/09/28 10:24:45;;;;;;;6.63;5.33;;;;;28.80;97356.00;;;;5049669;28;20204;-84
2023/09/28 10:27:36;;;;;;;12.33;5.40;;;;;29.40;97359.00;;;;5048125;28;20207;-83
2023/09/28 10:30:27;;;;;;;13.43;5.80;;;;;30.00;97354.00;;;;5038935;28;20204;-84
2023/09/28 10:33:17;;;;;;;6.07;5.00;;;;;29.90;97344.00;;;;5052230;28;20225;-82
2023/09/28 10:36:12;;;;;;;7.53;5.20;;;;;30.10;97347.00;;;;5046006;28;20209;-84
2023/09/28 10:39:11;;;;;;;12.63;4.93;;;;;30.60;97350.00;;;;5051730;28;20202;-84
2023/09/28 10:42:11;;;;;;;10.50;4.87;;;;;31.30;97366.00;;;;5058637;28;20231;-83
2023/09/28 10:45:02;;;;;;;7.70;5.13;;;;;30.50;97390.00;;;;5057117;28;20221;-83
2023/09/28 10:47:51;;;;;;;12.87;5.17;;;;;30.20;97350.00;;;;5049234;28;20216;-86
2023/09/28 10:50:42;;;;;;;11.07;5.30;;;;;30.70;97348.00;;;;5048650;28;20624;-86
2023/09/28 10:53:31;;;;;;;6.97;5.00;;;;;31.50;97354.00;;;;5047737;28;20580;-84
2023/09/28 10:56:20;;;;;;;5.67;4.67;;;;;31.60;97358.00;;;;5054680;28;20206;-85
2023/09/28 10:59:11;;;;;;;11.13;5.63;;;;;32.30;97353.00;;;;5050058;28;20680;-85
2023/09/28 11:02:02;;;;;;;5.68;4.70;;;;;33.00;97350.00;;;;5049372;28;20227;-85
2023/09/28 11:04:51;;;;;;;6.00;4.80;;;;;33.40;97352.00;;;;5048476;28;20264;-85
2023/09/28 11:07:41;;;;;;;6.75;5.32;;;;;33.00;97351.00;;;;5051748;28;20545;-85
2023/09/28 11:10:33;;;;;;;5.78;5.15;;;;;32.50;97352.00;;;;5049020;28;20207;-84
2023/09/28 11:13:24;;;;;;;7.47;5.63;;;;;32.20;97337.00;;;;5048628;28;20677;-83
2023/09/28 11:16:13;;;;;;;6.47;5.45;;;;;31.50;97339.00;;;;5048062;28;20225;-83
2023/09/28 11:19:04;;;;;;;8.98;5.20;;;;;32.30;97344.00;;;;5052108;28;20214;-85
2023/09/28 11:21:53;;;;;;;8.93;5.20;;;;;33.30;97335.00;;;;5048014;28;20237;-84
2023/09/28 11:24:42;;;;;;;9.77;5.10;;;;;33.90;97331.00;;;;5050192;28;20572;-85
2023/09/28 11:27:32;;;;;;;11.27;4.40;;;;;34.30;97333.00;;;;5043679;28;20244;-85
2023/09/28 11:30:21;;;;;;;13.77;4.68;;;;;34.50;97339.00;;;;5049494;28;20196;-85
2023/09/28 11:33:10;;;;;;;8.23;5.10;;;;;33.20;97331.00;;;;5050834;28;20212;-84
2023/09/28 11:36:03;;;;;;;8.05;6.07;;;;;34.10;97327.00;;;;5049351;28;20222;-84
2023/09/28 11:38:53;;;;;;;7.25;4.55;;;;;34.00;97336.00;;;;5050706;28;20211;-84
2023/09/28 11:41:56;;;;;;;5.85;4.47;;;;;34.60;97339.00;;;;5051372;28;20232;-85
2023/09/28 11:44:46;;;;;;;10.20;6.03;;;;;34.40;97336.00;;;;5047905;28;20223;-85
2023/09/28 11:47:36;;;;;;;11.02;4.80;;;;;34.60;97325.00;;;;5046399;28;20246;-85
2023/09/28 11:50:30;;;;;;;6.72;4.63;;;;;35.20;97325.00;;;;5044868;28;20212;-85
2023/09/28 11:53:20;;;;;;;7.13;4.75;;;;;35.00;97320.00;;;;5052546;28;20211;-86
2023/09/28 11:56:10;;;;;;;7.25;4.78;;;;;35.50;97312.00;;;;5051841;28;20209;-86
2023/09/28 11:58:59;;;;;;;10.35;4.20;;;;;36.00;97314.00;;;;5045961;28;20201;-85
2023/09/28 12:01:51;;;;;;;9.45;4.43;;;;;35.30;97324.00;;;;5048477;28;20293;-85
2023/09/28 12:04:41;;;;;;;4.95;4.47;;;;;35.50;97310.00;;;;5047603;28;20613;-85
2023/09/28 12:07:31;;;;;;;7.25;4.35;;;;;36.10;97315.00;;;;5049610;28;20212;-84
2023/09/28 12:10:21;;;;;;;4.93;4.47;;;;;36.40;97308.00;;;;5046312;28;20265;-84
2023/09/28 12:13:10;;;;;;;8.57;4.82;;;;;37.00;97309.00;;;;5044090;28;20247;-85
2023/09/28 12:16:00;;;;;;;5.50;3.65;;;;;36.30;97313.00;;;;5049314;28;20196;-85
2023/09/28 12:18:49;;;;;;;8.20;5.00;;;;;34.40;97315.00;;;;5049159;28;20581;-83
2023/09/28 12:21:39;;;;;;;6.68;4.60;;;;;33.20;97308.00;;;;5049934;28;20228;-84
2023/09/28 12:24:29;;;;;;;10.38;4.75;;;;;34.70;97311.00;;;;5047063;28;20205;-83
2023/09/28 12:27:20;;;;;;;5.78;4.20;;;;;34.80;97311.00;;;;5049465;28;20208;-84
2023/09/28 12:30:12;;;;;;;7.38;4.90;;;;;35.80;97314.00;;;;5045977;28;20216;-86
2023/09/28 12:33:02;;;;;;;13.40;4.93;;;;;34.80;97319.00;;;;5045368;28;20196;-84
2023/09/28 12:35:52;;;;;;;4.90;3.88;;;;;36.00;97315.00;;;;5041555;28;20204;-84
2023/09/28 12:38:41;;;;;;;8.18;5.13;;;;;36.90;97315.00;;;;5044311;28;20208;-84
2023/09/28 12:41:31;;;;;;;5.32;4.15;;;;;35.50;97318.00;;;;5045760;28;20232;-85
2023/09/28 12:44:24;;;;;;;6.60;4.55;;;;;36.90;97311.00;;;;5051605;28;20204;-85
2023/09/28 12:47:13;;;;;;;9.60;5.28;;;;;36.80;97322.00;;;;5050006;28;21021;-85
2023/09/28 12:50:03;;;;;;;8.25;4.50;;;;;35.50;97321.00;;;;5043907;28;20198;-83
2023/09/28 12:52:53;;;;;;;8.10;4.00;;;;;35.30;97316.00;;;;5037169;28;20209;-83
2023/09/28 12:55:43;;;;;;;4.97;4.53;;;;;35.60;97318.00;;;;5044621;28;20207;-83
2023/09/28 12:58:32;;;;;;;6.35;4.60;;;;;35.30;97319.00;;;;5040365;28;20220;-83
2023/09/28 13:01:22;;;;;;;6.53;4.93;;;;;35.80;97317.00;;;;5045236;28;20335;-83
2023/09/28 13:04:12;;;;;;;10.85;4.25;;;;;36.70;97308.00;;;;5048461;28;20212;-83
2023/09/28 13:07:01;;;;;;;5.63;4.07;;;;;32.80;97320.00;;;;5045156;28;20215;-81
2023/09/28 13:09:50;;;;;;;8.02;4.57;;;;;31.30;97310.00;;;;5041461;28;20600;-81
2023/09/28 13:12:41;;;;;;;7.68;5.20;;;;;33.40;97302.00;;;;5044212;28;20192;-83
2023/09/28 13:15:30;;;;;;;6.53;4.85;;;;;33.40;97305.00;;;;5043520;28;20579;-83
2023/09/28 13:18:21;;;;;;;8.68;4.80;;;;;33.00;97302.00;;;;5041472;28;20200;-81
2023/09/28 13:21:10;;;;;;;11.80;4.57;;;;;35.10;97311.00;;;;5042815;28;20720;-83
2023/09/28 13:24:01;;;;;;;5.63;5.07;;;;;35.10;97300.00;;;;5044238;28;20193;-84
2023/09/28 13:27:05;;;;;;;11.45;5.15;;;;;35.50;97300.00;;;;5043959;28;20200;-83
2023/09/28 13:29:54;;;;;;;5.55;4.20;;;;;35.40;97300.00;;;;5043472;28;20204;-83
2023/09/28 13:32:43;;;;;;;6.30;5.68;;;;;35.80;97309.00;;;;5045338;28;20239;-84
2023/09/28 13:35:34;;;;;;;10.10;4.55;;;;;36.20;97299.00;;;;5040374;28;20203;-84
2023/09/28 13:38:24;;;;;;;6.97;4.80;;;;;36.90;97293.00;;;;5045684;28;20204;-84
2023/09/28 13:41:13;;;;;;;7.70;4.90;;;;;37.50;97300.00;;;;5042708;28;20239;-84
2023/09/28 13:44:04;;;;;;;7.85;5.05;;;;;37.30;97298.00;;;;5041693;28;20200;-84
2023/09/28 13:46:54;;;;;;;7.38;4.47;;;;;37.90;97301.00;;;;5043708;28;20275;-84
2023/09/28 13:49:43;;;;;;;7.38;4.88;;;33.90;54.60;35.30;97302.00;;;;5041446;28;20243;-83
2023/09/28 13:52:35;;;;;;;5.30;4.13;;;33.60;52.80;36.10;97306.00;;;;5042554;28;20720;-82
2023/09/28 13:55:25;;;;;;;5.20;4.70;;;33.40;53.10;36.20;97311.00;;;;5041228;28;20215;-83
2023/09/28 13:58:16;;;;;;;8.50;6.00;;;33.30;53.20;36.70;97302.00;;;;5043433;28;20657;-84
2023/09/28 14:01:13;;;;;;;5.07;3.75;;;33.20;53.20;36.20;97300.00;;;;5041914;28;20250;-84